Warning: Javascript must be enabled to use all the features on this page!


Page Loading - Please Wait...

Click to hideNews Bulletins

Peak Streamflow for the Nation

USGS 09038500 WILLIAMS FORK BELOW WILLIAMS FORK RESERVOIR, CO

Grand County, Colorado
Hydrologic Unit Code 14010001
Latitude  40°02'09.34", Longitude 106°12'18.05" NAD83
Drainage area 230  square miles
Gage datum 7,615.00 feet above NGVD29
Output formats
Table
Graph
Tab-separated file
peakfq (watstore) format
Reselect output format
Water
Year
Date Gage
Height
(feet)
Stream-
flow
(cfs)
1949 1949-06-18 5.70 1,2406
1950 1950-06-18 5.54 1,1506
1951 1951-06-21 6.24 1,4106
1952 1952-06-11 6.80 1,6606
1953 1953-06-20 8.50 2,6406
1954 1953-10-09 3.12 2156
1959 1959-09-07 3.21 3186
1960 1960-07-01 2.716 3076
1961 1961-02-01 2.63 2916
1962 1962-07-06 4.98 8916
1963 1963-09-08 2.73 3366
1964 1963-11-04 2.50 2906
1965 1965-07-01 2.26 2426
1966 1966-02-05 2.51 2926
1967 1967-09-28 2.48 2846
1968 1967-10-30 2.52 2946
1969 1968-11-20 2.46 2646
1970 1970-03-16 2.52 2806
1971 1971-07-08 3.36 4716
1972 1972-05-18 2.44 2786
1973 1973-07-21 2.99 3856
1974 1974-09-13 2.70 3306
1975 1974-11-27 2.41 2726
1976 1975-11-28 2.27 2466
1977 1977-09-26 3.08 4216
1978 1977-10-02 2.90 3816
1979 1979-07-03 2.76 3426
1980 1980-05-26 2.53 2826
1981 1981-07-31 2.85 3666
1982 1981-10-01 2.67 3306
1983 1983-06-28 5.91 1,9606
1984 1984-07-01 5.13 1,2906
1985 1985-01-31 2.44 2686
1986 1986-03-25 2.352 2906
1987 1987-01-25 1.98 1886
1988 1988-06-22 3.29 6076
1989 1989-07-21 3.12 5236
1990 1990-06-14 2.28 2576
1991 1991-05-12 2.29 2646
1992 1992-09-23 2.31 2696
1993 1993-07-12 3.23 4776
1994 1994-09-15 2.24 2556
1995 1995-07-14 5.52 1,2706
1996 1996-06-23 5.42 1,2206
1997 1997-06-21 5.25 1,0706
1998 1998-05-31 2.43 3006
1999 1999-07-03 2.77 3836
2000 2000-06-06 2.92 4186
2001 2001-08-03 2.39 2916
2002 2002-06-29 2.38 2916
2003 2003-09-13 2.51 3216
2004 2004-07-19 2.57 3336
2005 2005-06-23 3.89 6806
2006 2006-06-07 4.90 9846
2007 2007-06-18 4.22 7616
2008 2008-05-30 5.76 1,2206
2009 2009-06-03 4.98 9846
2010 2010-06-07 6.07 1,3206
2011 2011-07-01 5.65 1,2106
2012 2012-08-06 2.75 3616
2013 2013-09-03 2.79 3816
2014 2014-06-06 5.41 1,1106
2015 2015-06-21 4.58 8656
2016 2016-06-09 4.98 9846
2017 2017-06-22 3.92 6776
2018 2018-06-17 4.03 7076
2019 2019-07-01 4.98 9846
2020 2020-06-04 3.28 5086
2021 2021-08-22 2.71 3516
?
  Peak Gage-Height Qualification Codes.
?
  Peak Streamflow Qualification Codes.